sensor_id;sensor_type;location;lat;lon;timestamp;P1;durP1;ratioP1;P2;durP2;ratioP2
6280;SDS011;3173;48.204;11.612;2022-09-01T00:01:21;28.23;;;20.83;;
6280;SDS011;3173;48.204;11.612;2022-09-01T00:03:51;28.90;;;20.37;;
6280;SDS011;3173;48.204;11.612;2022-09-01T00:06:18;29.73;;;21.20;;
6280;SDS011;3173;48.204;11.612;2022-09-01T00:08:53;28.87;;;21.37;;
6280;SDS011;3173;48.204;11.612;2022-09-01T00:11:20;30.20;;;21.10;;
6280;SDS011;3173;48.204;11.612;2022-09-01T00:13:47;25.73;;;20.20;;
6280;SDS011;3173;48.204;11.612;2022-09-01T00:16:13;27.00;;;20.67;;
6280;SDS011;3173;48.204;11.612;2022-09-01T00:18:42;29.10;;;19.20;;
6280;SDS011;3173;48.204;11.612;2022-09-01T00:21:10;27.67;;;20.90;;
6280;SDS011;3173;48.204;11.612;2022-09-01T00:23:36;30.20;;;20.50;;
6280;SDS011;3173;48.204;11.612;2022-09-01T00:26:02;31.67;;;22.10;;
6280;SDS011;3173;48.204;11.612;2022-09-01T00:28:28;28.80;;;22.00;;
6280;SDS011;3173;48.204;11.612;2022-09-01T00:30:54;29.27;;;21.90;;
6280;SDS011;3173;48.204;11.612;2022-09-01T00:33:20;27.97;;;21.20;;
6280;SDS011;3173;48.204;11.612;2022-09-01T00:35:46;30.83;;;22.20;;
6280;SDS011;3173;48.204;11.612;2022-09-01T00:38:12;34.80;;;21.73;;
6280;SDS011;3173;48.204;11.612;2022-09-01T00:40:38;28.40;;;21.40;;
6280;SDS011;3173;48.204;11.612;2022-09-01T00:43:14;31.67;;;22.63;;
6280;SDS011;3173;48.204;11.612;2022-09-01T00:45:41;28.10;;;20.47;;
6280;SDS011;3173;48.204;11.612;2022-09-01T00:48:07;28.10;;;20.87;;
6280;SDS011;3173;48.204;11.612;2022-09-01T00:50:33;28.57;;;20.70;;
6280;SDS011;3173;48.204;11.612;2022-09-01T00:53:00;29.67;;;21.57;;
6280;SDS011;3173;48.204;11.612;2022-09-01T00:55:28;31.23;;;22.10;;
6280;SDS011;3173;48.204;11.612;2022-09-01T00:57:54;29.33;;;23.13;;
6280;SDS011;3173;48.204;11.612;2022-09-01T01:00:25;32.00;;;22.80;;
6280;SDS011;3173;48.204;11.612;2022-09-01T01:02:52;34.17;;;22.13;;
6280;SDS011;3173;48.204;11.612;2022-09-01T01:05:33;37.03;;;22.63;;
6280;SDS011;3173;48.204;11.612;2022-09-01T01:08:01;34.47;;;24.03;;
6280;SDS011;3173;48.204;11.612;2022-09-01T01:10:29;34.23;;;23.87;;
6280;SDS011;3173;48.204;11.612;2022-09-01T01:12:56;34.83;;;24.80;;
6280;SDS011;3173;48.204;11.612;2022-09-01T01:15:26;33.80;;;25.47;;
6280;SDS011;3173;48.204;11.612;2022-09-01T01:17:52;36.43;;;25.37;;
6280;SDS011;3173;48.204;11.612;2022-09-01T01:20:18;38.97;;;25.97;;
6280;SDS011;3173;48.204;11.612;2022-09-01T01:23:05;41.20;;;28.07;;
6280;SDS011;3173;48.204;11.612;2022-09-01T01:28:04;38.50;;;28.27;;
6280;SDS011;3173;48.204;11.612;2022-09-01T01:30:30;39.77;;;27.30;;
6280;SDS011;3173;48.204;11.612;2022-09-01T01:32:57;42.40;;;28.50;;
6280;SDS011;3173;48.204;11.612;2022-09-01T01:35:24;40.20;;;29.07;;
6280;SDS011;3173;48.204;11.612;2022-09-01T01:37:51;39.97;;;30.17;;
6280;SDS011;3173;48.204;11.612;2022-09-01T01:40:18;39.10;;;27.10;;
6280;SDS011;3173;48.204;11.612;2022-09-01T01:42:46;38.23;;;28.13;;
6280;SDS011;3173;48.204;11.612;2022-09-01T01:45:14;41.10;;;28.57;;
6280;SDS011;3173;48.204;11.612;2022-09-01T01:47:44;41.77;;;28.23;;
6280;SDS011;3173;48.204;11.612;2022-09-01T01:50:11;37.13;;;27.57;;
6280;SDS011;3173;48.204;11.612;2022-09-01T01:52:39;38.73;;;28.20;;
6280;SDS011;3173;48.204;11.612;2022-09-01T01:55:07;36.83;;;26.30;;
6280;SDS011;3173;48.204;11.612;2022-09-01T01:57:37;33.80;;;25.87;;
6280;SDS011;3173;48.204;11.612;2022-09-01T02:00:03;38.20;;;26.87;;
6280;SDS011;3173;48.204;11.612;2022-09-01T02:02:29;38.10;;;26.63;;
6280;SDS011;3173;48.204;11.612;2022-09-01T02:04:55;37.70;;;26.83;;
6280;SDS011;3173;48.204;11.612;2022-09-01T02:07:22;38.50;;;26.53;;
6280;SDS011;3173;48.204;11.612;2022-09-01T02:09:48;32.90;;;25.30;;
6280;SDS011;3173;48.204;11.612;2022-09-01T02:12:14;40.43;;;27.30;;
6280;SDS011;3173;48.204;11.612;2022-09-01T02:14:43;33.80;;;24.70;;
6280;SDS011;3173;48.204;11.612;2022-09-01T02:17:09;36.83;;;24.40;;
6280;SDS011;3173;48.204;11.612;2022-09-01T02:19:35;33.73;;;25.70;;
6280;SDS011;3173;48.204;11.612;2022-09-01T02:22:06;36.97;;;26.20;;
6280;SDS011;3173;48.204;11.612;2022-09-01T02:24:34;36.27;;;25.70;;
6280;SDS011;3173;48.204;11.612;2022-09-01T02:27:00;39.47;;;27.03;;
6280;SDS011;3173;48.204;11.612;2022-09-01T02:29:27;39.20;;;24.53;;
6280;SDS011;3173;48.204;11.612;2022-09-01T02:31:53;36.70;;;26.63;;
6280;SDS011;3173;48.204;11.612;2022-09-01T02:34:21;39.60;;;26.90;;
6280;SDS011;3173;48.204;11.612;2022-09-01T02:36:49;38.63;;;26.53;;
6280;SDS011;3173;48.204;11.612;2022-09-01T02:39:33;42.53;;;27.30;;
6280;SDS011;3173;48.204;11.612;2022-09-01T02:41:59;40.20;;;27.90;;
6280;SDS011;3173;48.204;11.612;2022-09-01T02:44:25;40.80;;;27.40;;
6280;SDS011;3173;48.204;11.612;2022-09-01T02:46:53;37.67;;;26.37;;
6280;SDS011;3173;48.204;11.612;2022-09-01T02:49:19;40.73;;;28.23;;
6280;SDS011;3173;48.204;11.612;2022-09-01T02:51:50;36.60;;;26.07;;
6280;SDS011;3173;48.204;11.612;2022-09-01T02:54:18;38.60;;;26.83;;
6280;SDS011;3173;48.204;11.612;2022-09-01T02:56:48;38.20;;;26.77;;
6280;SDS011;3173;48.204;11.612;2022-09-01T02:59:15;37.60;;;26.30;;
6280;SDS011;3173;48.204;11.612;2022-09-01T03:01:42;35.97;;;26.60;;
6280;SDS011;3173;48.204;11.612;2022-09-01T03:04:10;33.73;;;23.13;;
6280;SDS011;3173;48.204;11.612;2022-09-01T03:06:37;36.50;;;25.20;;
6280;SDS011;3173;48.204;11.612;2022-09-01T03:09:04;35.07;;;25.67;;
6280;SDS011;3173;48.204;11.612;2022-09-01T03:11:31;36.40;;;25.57;;
6280;SDS011;3173;48.204;11.612;2022-09-01T03:13:59;42.13;;;27.27;;
6280;SDS011;3173;48.204;11.612;2022-09-01T03:16:25;36.27;;;26.13;;
6280;SDS011;3173;48.204;11.612;2022-09-01T03:18:51;39.20;;;27.33;;
6280;SDS011;3173;48.204;11.612;2022-09-01T03:21:18;37.53;;;25.53;;
6280;SDS011;3173;48.204;11.612;2022-09-01T03:23:45;40.97;;;26.97;;
6280;SDS011;3173;48.204;11.612;2022-09-01T03:26:12;37.70;;;27.60;;
6280;SDS011;3173;48.204;11.612;2022-09-01T03:28:38;38.43;;;27.10;;
6280;SDS011;3173;48.204;11.612;2022-09-01T03:31:04;45.50;;;27.00;;
6280;SDS011;3173;48.204;11.612;2022-09-01T03:33:31;39.47;;;26.60;;
6280;SDS011;3173;48.204;11.612;2022-09-01T03:35:58;38.70;;;26.97;;
6280;SDS011;3173;48.204;11.612;2022-09-01T03:38:24;41.57;;;28.30;;
6280;SDS011;3173;48.204;11.612;2022-09-01T03:40:51;41.07;;;27.33;;
6280;SDS011;3173;48.204;11.612;2022-09-01T03:43:18;38.33;;;27.80;;
6280;SDS011;3173;48.204;11.612;2022-09-01T03:45:47;41.10;;;28.40;;
6280;SDS011;3173;48.204;11.612;2022-09-01T03:48:13;40.10;;;30.50;;
6280;SDS011;3173;48.204;11.612;2022-09-01T03:50:41;45.30;;;28.40;;
6280;SDS011;3173;48.204;11.612;2022-09-01T03:53:11;38.37;;;27.77;;
6280;SDS011;3173;48.204;11.612;2022-09-01T03:55:37;38.63;;;28.57;;
6280;SDS011;3173;48.204;11.612;2022-09-01T03:58:05;40.83;;;26.93;;
6280;SDS011;3173;48.204;11.612;2022-09-01T04:00:32;38.90;;;27.83;;
6280;SDS011;3173;48.204;11.612;2022-09-01T04:03:00;34.57;;;27.00;;
6280;SDS011;3173;48.204;11.612;2022-09-01T04:05:27;43.57;;;28.50;;
6280;SDS011;3173;48.204;11.612;2022-09-01T04:07:54;38.47;;;27.73;;
6280;SDS011;3173;48.204;11.612;2022-09-01T04:10:21;35.03;;;26.60;;
6280;SDS011;3173;48.204;11.612;2022-09-01T04:12:47;37.20;;;27.90;;
6280;SDS011;3173;48.204;11.612;2022-09-01T04:15:14;39.63;;;27.60;;
6280;SDS011;3173;48.204;11.612;2022-09-01T04:17:44;45.97;;;28.03;;
6280;SDS011;3173;48.204;11.612;2022-09-01T04:20:33;41.00;;;29.73;;
6280;SDS011;3173;48.204;11.612;2022-09-01T04:23:11;40.00;;;27.03;;
6280;SDS011;3173;48.204;11.612;2022-09-01T04:25:37;39.70;;;29.50;;
6280;SDS011;3173;48.204;11.612;2022-09-01T04:28:04;40.43;;;28.17;;
6280;SDS011;3173;48.204;11.612;2022-09-01T04:30:41;41.07;;;29.73;;
6280;SDS011;3173;48.204;11.612;2022-09-01T04:33:07;47.80;;;31.77;;
6280;SDS011;3173;48.204;11.612;2022-09-01T04:35:37;43.70;;;30.03;;
6280;SDS011;3173;48.204;11.612;2022-09-01T04:38:04;43.30;;;31.17;;
6280;SDS011;3173;48.204;11.612;2022-09-01T04:40:32;44.37;;;30.27;;
6280;SDS011;3173;48.204;11.612;2022-09-01T04:42:58;46.10;;;28.70;;
6280;SDS011;3173;48.204;11.612;2022-09-01T04:45:24;43.67;;;30.50;;
6280;SDS011;3173;48.204;11.612;2022-09-01T04:47:51;43.07;;;29.27;;
6280;SDS011;3173;48.204;11.612;2022-09-01T04:50:17;42.67;;;28.97;;
6280;SDS011;3173;48.204;11.612;2022-09-01T04:52:45;42.60;;;31.20;;
6280;SDS011;3173;48.204;11.612;2022-09-01T04:55:12;44.77;;;31.97;;
6280;SDS011;3173;48.204;11.612;2022-09-01T04:57:41;41.83;;;29.97;;
6280;SDS011;3173;48.204;11.612;2022-09-01T05:00:11;40.70;;;28.40;;
6280;SDS011;3173;48.204;11.612;2022-09-01T05:02:46;42.10;;;29.27;;
6280;SDS011;3173;48.204;11.612;2022-09-01T05:05:12;40.90;;;28.57;;
6280;SDS011;3173;48.204;11.612;2022-09-01T05:07:38;47.27;;;29.70;;
6280;SDS011;3173;48.204;11.612;2022-09-01T05:10:04;44.50;;;29.47;;
6280;SDS011;3173;48.204;11.612;2022-09-01T05:12:30;41.30;;;27.97;;
6280;SDS011;3173;48.204;11.612;2022-09-01T05:14:56;40.70;;;27.70;;
6280;SDS011;3173;48.204;11.612;2022-09-01T05:17:22;38.27;;;27.80;;
6280;SDS011;3173;48.204;11.612;2022-09-01T05:19:53;40.20;;;28.83;;
6280;SDS011;3173;48.204;11.612;2022-09-01T05:22:20;38.63;;;28.10;;
6280;SDS011;3173;48.204;11.612;2022-09-01T05:24:46;38.17;;;26.70;;
6280;SDS011;3173;48.204;11.612;2022-09-01T05:27:15;42.23;;;28.43;;
6280;SDS011;3173;48.204;11.612;2022-09-01T05:29:42;37.83;;;26.90;;
6280;SDS011;3173;48.204;11.612;2022-09-01T05:32:09;38.63;;;27.10;;
6280;SDS011;3173;48.204;11.612;2022-09-01T05:34:36;35.70;;;26.93;;
6280;SDS011;3173;48.204;11.612;2022-09-01T05:37:03;39.80;;;26.43;;
6280;SDS011;3173;48.204;11.612;2022-09-01T05:39:30;43.13;;;29.03;;
6280;SDS011;3173;48.204;11.612;2022-09-01T05:41:57;37.73;;;26.50;;
6280;SDS011;3173;48.204;11.612;2022-09-01T05:44:23;41.00;;;25.77;;
6280;SDS011;3173;48.204;11.612;2022-09-01T05:46:49;34.67;;;24.63;;
6280;SDS011;3173;48.204;11.612;2022-09-01T05:49:17;35.80;;;25.90;;
6280;SDS011;3173;48.204;11.612;2022-09-01T05:51:49;37.33;;;25.73;;
6280;SDS011;3173;48.204;11.612;2022-09-01T05:54:17;33.37;;;23.70;;
6280;SDS011;3173;48.204;11.612;2022-09-01T05:56:45;32.20;;;23.00;;
6280;SDS011;3173;48.204;11.612;2022-09-01T05:59:11;32.77;;;22.20;;
6280;SDS011;3173;48.204;11.612;2022-09-01T06:01:39;30.43;;;21.53;;
6280;SDS011;3173;48.204;11.612;2022-09-01T06:04:06;27.10;;;20.00;;
6280;SDS011;3173;48.204;11.612;2022-09-01T06:06:37;27.13;;;20.57;;
6280;SDS011;3173;48.204;11.612;2022-09-01T06:09:05;27.07;;;20.10;;
6280;SDS011;3173;48.204;11.612;2022-09-01T06:11:31;27.60;;;20.03;;
6280;SDS011;3173;48.204;11.612;2022-09-01T06:13:58;25.47;;;20.17;;
6280;SDS011;3173;48.204;11.612;2022-09-01T06:16:24;24.73;;;19.20;;
6280;SDS011;3173;48.204;11.612;2022-09-01T06:18:51;27.20;;;18.03;;
6280;SDS011;3173;48.204;11.612;2022-09-01T06:21:18;26.20;;;19.67;;
6280;SDS011;3173;48.204;11.612;2022-09-01T06:23:44;23.20;;;18.17;;
6280;SDS011;3173;48.204;11.612;2022-09-01T06:26:17;25.00;;;18.33;;
6280;SDS011;3173;48.204;11.612;2022-09-01T06:28:43;23.43;;;17.57;;
6280;SDS011;3173;48.204;11.612;2022-09-01T06:31:09;22.00;;;17.10;;
6280;SDS011;3173;48.204;11.612;2022-09-01T06:33:36;23.53;;;17.57;;
6280;SDS011;3173;48.204;11.612;2022-09-01T06:36:02;23.50;;;17.40;;
6280;SDS011;3173;48.204;11.612;2022-09-01T06:38:29;22.57;;;16.90;;
6280;SDS011;3173;48.204;11.612;2022-09-01T06:40:59;22.30;;;16.63;;
6280;SDS011;3173;48.204;11.612;2022-09-01T06:43:26;23.40;;;16.83;;
6280;SDS011;3173;48.204;11.612;2022-09-01T06:45:54;21.23;;;15.67;;
6280;SDS011;3173;48.204;11.612;2022-09-01T06:48:20;21.47;;;15.40;;
6280;SDS011;3173;48.204;11.612;2022-09-01T06:50:47;21.60;;;16.03;;
6280;SDS011;3173;48.204;11.612;2022-09-01T06:53:14;21.90;;;15.90;;
6280;SDS011;3173;48.204;11.612;2022-09-01T06:55:42;24.13;;;15.20;;
6280;SDS011;3173;48.204;11.612;2022-09-01T06:58:11;19.73;;;15.17;;
6280;SDS011;3173;48.204;11.612;2022-09-01T07:00:39;22.60;;;15.37;;
6280;SDS011;3173;48.204;11.612;2022-09-01T07:03:09;18.27;;;14.30;;
6280;SDS011;3173;48.204;11.612;2022-09-01T07:05:39;20.33;;;15.60;;
6280;SDS011;3173;48.204;11.612;2022-09-01T07:08:07;18.00;;;14.40;;
6280;SDS011;3173;48.204;11.612;2022-09-01T07:10:38;18.70;;;15.20;;
6280;SDS011;3173;48.204;11.612;2022-09-01T07:13:05;18.30;;;13.83;;
6280;SDS011;3173;48.204;11.612;2022-09-01T07:15:36;19.57;;;14.30;;
6280;SDS011;3173;48.204;11.612;2022-09-01T07:18:02;18.63;;;13.47;;
6280;SDS011;3173;48.204;11.612;2022-09-01T07:20:28;18.30;;;14.10;;
6280;SDS011;3173;48.204;11.612;2022-09-01T07:22:59;19.33;;;13.80;;
6280;SDS011;3173;48.204;11.612;2022-09-01T07:25:25;17.00;;;13.40;;
6280;SDS011;3173;48.204;11.612;2022-09-01T07:27:51;18.73;;;14.60;;
6280;SDS011;3173;48.204;11.612;2022-09-01T07:30:19;18.60;;;13.60;;
6280;SDS011;3173;48.204;11.612;2022-09-01T07:32:46;18.90;;;14.30;;
6280;SDS011;3173;48.204;11.612;2022-09-01T07:35:13;22.33;;;14.93;;
6280;SDS011;3173;48.204;11.612;2022-09-01T07:37:39;16.17;;;12.10;;
6280;SDS011;3173;48.204;11.612;2022-09-01T07:40:06;15.53;;;12.67;;
6280;SDS011;3173;48.204;11.612;2022-09-01T07:42:33;16.53;;;13.27;;
6280;SDS011;3173;48.204;11.612;2022-09-01T07:44:59;16.97;;;11.70;;
6280;SDS011;3173;48.204;11.612;2022-09-01T07:47:25;14.10;;;10.70;;
6280;SDS011;3173;48.204;11.612;2022-09-01T07:49:54;13.67;;;11.33;;
6280;SDS011;3173;48.204;11.612;2022-09-01T07:52:20;13.50;;;11.03;;
6280;SDS011;3173;48.204;11.612;2022-09-01T07:54:46;12.70;;;10.87;;
6280;SDS011;3173;48.204;11.612;2022-09-01T07:57:12;16.37;;;11.03;;
6280;SDS011;3173;48.204;11.612;2022-09-01T07:59:38;13.43;;;10.47;;
6280;SDS011;3173;48.204;11.612;2022-09-01T08:02:05;14.67;;;11.67;;
6280;SDS011;3173;48.204;11.612;2022-09-01T08:04:31;14.40;;;11.10;;
6280;SDS011;3173;48.204;11.612;2022-09-01T08:06:58;13.53;;;10.97;;
6280;SDS011;3173;48.204;11.612;2022-09-01T08:09:24;16.40;;;11.80;;
6280;SDS011;3173;48.204;11.612;2022-09-01T08:11:50;15.37;;;10.03;;
6280;SDS011;3173;48.204;11.612;2022-09-01T08:14:16;11.10;;;9.83;;
6280;SDS011;3173;48.204;11.612;2022-09-01T08:16:42;10.40;;;9.10;;
6280;SDS011;3173;48.204;11.612;2022-09-01T08:19:08;16.10;;;11.20;;
6280;SDS011;3173;48.204;11.612;2022-09-01T08:21:34;12.30;;;9.27;;
6280;SDS011;3173;48.204;11.612;2022-09-01T08:24:00;10.90;;;9.50;;
6280;SDS011;3173;48.204;11.612;2022-09-01T08:26:26;11.13;;;9.10;;
6280;SDS011;3173;48.204;11.612;2022-09-01T08:28:52;11.50;;;8.90;;
6280;SDS011;3173;48.204;11.612;2022-09-01T08:31:19;10.80;;;9.43;;
6280;SDS011;3173;48.204;11.612;2022-09-01T08:33:46;12.23;;;8.20;;
6280;SDS011;3173;48.204;11.612;2022-09-01T08:36:12;12.03;;;7.90;;
6280;SDS011;3173;48.204;11.612;2022-09-01T08:38:39;10.67;;;8.13;;
6280;SDS011;3173;48.204;11.612;2022-09-01T08:41:13;12.63;;;8.40;;
6280;SDS011;3173;48.204;11.612;2022-09-01T08:46:22;12.43;;;9.00;;
6280;SDS011;3173;48.204;11.612;2022-09-01T08:48:50;13.80;;;10.10;;
6280;SDS011;3173;48.204;11.612;2022-09-01T08:53:50;13.30;;;8.87;;
6280;SDS011;3173;48.204;11.612;2022-09-01T08:56:18;16.43;;;10.10;;
6280;SDS011;3173;48.204;11.612;2022-09-01T08:58:44;11.93;;;9.77;;
6280;SDS011;3173;48.204;11.612;2022-09-01T09:01:16;13.50;;;10.00;;
6280;SDS011;3173;48.204;11.612;2022-09-01T09:03:50;12.70;;;9.67;;
6280;SDS011;3173;48.204;11.612;2022-09-01T09:08:58;12.27;;;9.33;;
6280;SDS011;3173;48.204;11.612;2022-09-01T09:16:34;12.93;;;8.70;;
6280;SDS011;3173;48.204;11.612;2022-09-01T09:19:03;11.73;;;7.77;;
6280;SDS011;3173;48.204;11.612;2022-09-01T09:21:40;11.07;;;8.37;;
6280;SDS011;3173;48.204;11.612;2022-09-01T09:24:42;10.17;;;7.80;;
6280;SDS011;3173;48.204;11.612;2022-09-01T09:27:21;9.73;;;7.13;;
6280;SDS011;3173;48.204;11.612;2022-09-01T09:29:52;11.30;;;7.23;;
6280;SDS011;3173;48.204;11.612;2022-09-01T09:32:18;12.10;;;7.67;;
6280;SDS011;3173;48.204;11.612;2022-09-01T09:34:45;9.20;;;6.57;;
6280;SDS011;3173;48.204;11.612;2022-09-01T09:40:25;10.23;;;6.90;;
6280;SDS011;3173;48.204;11.612;2022-09-01T09:45:24;9.03;;;6.00;;
6280;SDS011;3173;48.204;11.612;2022-09-01T09:47:51;7.37;;;4.90;;
6280;SDS011;3173;48.204;11.612;2022-09-01T09:50:19;7.07;;;4.47;;
6280;SDS011;3173;48.204;11.612;2022-09-01T09:52:47;7.63;;;4.30;;
6280;SDS011;3173;48.204;11.612;2022-09-01T09:55:20;6.63;;;3.77;;
6280;SDS011;3173;48.204;11.612;2022-09-01T09:57:48;7.60;;;3.70;;
6280;SDS011;3173;48.204;11.612;2022-09-01T10:02:53;6.43;;;3.60;;
6280;SDS011;3173;48.204;11.612;2022-09-01T10:08:02;4.43;;;3.10;;
6280;SDS011;3173;48.204;11.612;2022-09-01T10:13:02;4.67;;;2.70;;
6280;SDS011;3173;48.204;11.612;2022-09-01T10:15:29;6.20;;;3.10;;
6280;SDS011;3173;48.204;11.612;2022-09-01T10:18:03;6.43;;;3.07;;
6280;SDS011;3173;48.204;11.612;2022-09-01T10:20:30;4.70;;;3.30;;
6280;SDS011;3173;48.204;11.612;2022-09-01T10:22:58;4.23;;;3.00;;
6280;SDS011;3173;48.204;11.612;2022-09-01T10:25:25;8.10;;;2.60;;
6280;SDS011;3173;48.204;11.612;2022-09-01T10:27:57;4.33;;;2.90;;
6280;SDS011;3173;48.204;11.612;2022-09-01T10:30:24;3.00;;;2.40;;
6280;SDS011;3173;48.204;11.612;2022-09-01T10:32:51;5.33;;;2.97;;
6280;SDS011;3173;48.204;11.612;2022-09-01T10:35:21;3.10;;;2.63;;
6280;SDS011;3173;48.204;11.612;2022-09-01T10:37:48;3.60;;;2.60;;
6280;SDS011;3173;48.204;11.612;2022-09-01T10:40:15;3.50;;;1.90;;
6280;SDS011;3173;48.204;11.612;2022-09-01T10:42:43;3.60;;;1.90;;
6280;SDS011;3173;48.204;11.612;2022-09-01T10:45:16;4.00;;;2.20;;
6280;SDS011;3173;48.204;11.612;2022-09-01T10:47:44;3.07;;;2.03;;
6280;SDS011;3173;48.204;11.612;2022-09-01T10:50:27;2.93;;;1.90;;
6280;SDS011;3173;48.204;11.612;2022-09-01T10:52:56;4.63;;;2.57;;
6280;SDS011;3173;48.204;11.612;2022-09-01T10:55:24;3.50;;;2.40;;
6280;SDS011;3173;48.204;11.612;2022-09-01T11:05:57;2.87;;;2.20;;
6280;SDS011;3173;48.204;11.612;2022-09-01T11:13:40;6.00;;;2.40;;
6280;SDS011;3173;48.204;11.612;2022-09-01T11:16:23;9.20;;;2.30;;
6280;SDS011;3173;48.204;11.612;2022-09-01T11:18:50;2.20;;;1.80;;
6280;SDS011;3173;48.204;11.612;2022-09-01T11:21:27;3.73;;;1.90;;
6280;SDS011;3173;48.204;11.612;2022-09-01T11:26:46;5.33;;;1.87;;
6280;SDS011;3173;48.204;11.612;2022-09-01T11:31:57;6.83;;;1.73;;
6280;SDS011;3173;48.204;11.612;2022-09-01T11:34:23;2.77;;;1.77;;
6280;SDS011;3173;48.204;11.612;2022-09-01T11:36:53;3.67;;;1.50;;
6280;SDS011;3173;48.204;11.612;2022-09-01T11:41:54;2.90;;;1.70;;
6280;SDS011;3173;48.204;11.612;2022-09-01T11:45:22;2.63;;;1.40;;
6280;SDS011;3173;48.204;11.612;2022-09-01T11:47:18;3.17;;;1.50;;
6280;SDS011;3173;48.204;11.612;2022-09-01T11:49:46;2.00;;;1.47;;
6280;SDS011;3173;48.204;11.612;2022-09-01T11:52:14;1.83;;;1.47;;
6280;SDS011;3173;48.204;11.612;2022-09-01T11:54:41;3.33;;;1.50;;
6280;SDS011;3173;48.204;11.612;2022-09-01T11:59:52;3.80;;;2.30;;
6280;SDS011;3173;48.204;11.612;2022-09-01T12:02:29;4.53;;;2.50;;
6280;SDS011;3173;48.204;11.612;2022-09-01T12:04:58;3.40;;;2.20;;
6280;SDS011;3173;48.204;11.612;2022-09-01T12:10:02;4.57;;;2.80;;
6280;SDS011;3173;48.204;11.612;2022-09-01T12:12:30;4.53;;;2.40;;
6280;SDS011;3173;48.204;11.612;2022-09-01T12:15:05;3.33;;;2.60;;
6280;SDS011;3173;48.204;11.612;2022-09-01T12:17:33;4.70;;;2.80;;
6280;SDS011;3173;48.204;11.612;2022-09-01T12:20:18;3.03;;;1.77;;
6280;SDS011;3173;48.204;11.612;2022-09-01T12:22:44;2.90;;;2.03;;
6280;SDS011;3173;48.204;11.612;2022-09-01T12:25:20;2.80;;;2.00;;
6280;SDS011;3173;48.204;11.612;2022-09-01T12:27:47;11.67;;;1.40;;
6280;SDS011;3173;48.204;11.612;2022-09-01T12:30:13;3.63;;;1.77;;
6280;SDS011;3173;48.204;11.612;2022-09-01T12:32:39;3.80;;;1.70;;
6280;SDS011;3173;48.204;11.612;2022-09-01T12:35:10;3.47;;;1.80;;
6280;SDS011;3173;48.204;11.612;2022-09-01T12:37:39;2.53;;;1.37;;
6280;SDS011;3173;48.204;11.612;2022-09-01T12:40:05;3.47;;;1.17;;
6280;SDS011;3173;48.204;11.612;2022-09-01T12:42:49;3.67;;;1.97;;
6280;SDS011;3173;48.204;11.612;2022-09-01T12:45:15;6.27;;;2.57;;
6280;SDS011;3173;48.204;11.612;2022-09-01T12:48:00;3.63;;;2.20;;
6280;SDS011;3173;48.204;11.612;2022-09-01T12:52:53;6.93;;;2.30;;
6280;SDS011;3173;48.204;11.612;2022-09-01T12:55:21;3.43;;;1.60;;
6280;SDS011;3173;48.204;11.612;2022-09-01T12:57:49;2.97;;;1.90;;
6280;SDS011;3173;48.204;11.612;2022-09-01T13:00:17;2.15;;;1.45;;
6280;SDS011;3173;48.204;11.612;2022-09-01T13:02:47;3.70;;;1.47;;
6280;SDS011;3173;48.204;11.612;2022-09-01T13:07:43;3.00;;;1.33;;
6280;SDS011;3173;48.204;11.612;2022-09-01T13:10:09;2.90;;;1.60;;
6280;SDS011;3173;48.204;11.612;2022-09-01T13:12:38;2.67;;;1.50;;
6280;SDS011;3173;48.204;11.612;2022-09-01T13:15:05;3.50;;;1.87;;
6280;SDS011;3173;48.204;11.612;2022-09-01T13:17:32;5.40;;;1.93;;
6280;SDS011;3173;48.204;11.612;2022-09-01T13:19:57;3.60;;;1.40;;
6280;SDS011;3173;48.204;11.612;2022-09-01T13:22:23;3.00;;;1.87;;
6280;SDS011;3173;48.204;11.612;2022-09-01T13:24:49;3.30;;;2.17;;
6280;SDS011;3173;48.204;11.612;2022-09-01T13:27:15;3.00;;;1.90;;
6280;SDS011;3173;48.204;11.612;2022-09-01T13:29:41;4.03;;;1.57;;
6280;SDS011;3173;48.204;11.612;2022-09-01T13:32:07;3.93;;;1.80;;
6280;SDS011;3173;48.204;11.612;2022-09-01T13:34:33;1.97;;;1.60;;
6280;SDS011;3173;48.204;11.612;2022-09-01T13:36:59;3.33;;;1.60;;
6280;SDS011;3173;48.204;11.612;2022-09-01T13:39:25;6.73;;;1.87;;
6280;SDS011;3173;48.204;11.612;2022-09-01T13:41:51;3.00;;;1.63;;
6280;SDS011;3173;48.204;11.612;2022-09-01T13:44:17;4.43;;;1.40;;
6280;SDS011;3173;48.204;11.612;2022-09-01T13:46:44;3.30;;;1.57;;
6280;SDS011;3173;48.204;11.612;2022-09-01T13:49:10;2.20;;;1.33;;
6280;SDS011;3173;48.204;11.612;2022-09-01T13:51:36;3.30;;;1.47;;
6280;SDS011;3173;48.204;11.612;2022-09-01T13:54:02;3.07;;;1.40;;
6280;SDS011;3173;48.204;11.612;2022-09-01T13:56:29;2.43;;;1.37;;
6280;SDS011;3173;48.204;11.612;2022-09-01T13:58:55;2.50;;;1.43;;
6280;SDS011;3173;48.204;11.612;2022-09-01T14:01:20;2.10;;;1.30;;
6280;SDS011;3173;48.204;11.612;2022-09-01T14:03:47;4.03;;;1.33;;
6280;SDS011;3173;48.204;11.612;2022-09-01T14:06:13;5.57;;;1.33;;
6280;SDS011;3173;48.204;11.612;2022-09-01T14:08:39;4.60;;;1.60;;
6280;SDS011;3173;48.204;11.612;2022-09-01T14:11:05;1.80;;;1.20;;
6280;SDS011;3173;48.204;11.612;2022-09-01T14:13:31;4.00;;;1.37;;
6280;SDS011;3173;48.204;11.612;2022-09-01T14:15:58;4.47;;;1.90;;
6280;SDS011;3173;48.204;11.612;2022-09-01T14:18:24;1.97;;;1.33;;
6280;SDS011;3173;48.204;11.612;2022-09-01T14:20:56;3.47;;;1.40;;
6280;SDS011;3173;48.204;11.612;2022-09-01T14:23:25;2.53;;;1.40;;
6280;SDS011;3173;48.204;11.612;2022-09-01T14:25:51;4.50;;;1.30;;
6280;SDS011;3173;48.204;11.612;2022-09-01T14:28:18;2.43;;;1.70;;
6280;SDS011;3173;48.204;11.612;2022-09-01T14:30:44;3.60;;;1.13;;
6280;SDS011;3173;48.204;11.612;2022-09-01T14:33:10;3.40;;;1.30;;
6280;SDS011;3173;48.204;11.612;2022-09-01T14:35:38;2.07;;;1.20;;
6280;SDS011;3173;48.204;11.612;2022-09-01T14:38:04;3.87;;;1.10;;
6280;SDS011;3173;48.204;11.612;2022-09-01T14:40:32;2.40;;;1.37;;
6280;SDS011;3173;48.204;11.612;2022-09-01T14:43:00;4.27;;;1.20;;
6280;SDS011;3173;48.204;11.612;2022-09-01T14:45:26;2.10;;;1.00;;
6280;SDS011;3173;48.204;11.612;2022-09-01T14:47:54;2.53;;;1.20;;
6280;SDS011;3173;48.204;11.612;2022-09-01T14:50:20;1.60;;;1.00;;
6280;SDS011;3173;48.204;11.612;2022-09-01T14:52:47;2.63;;;1.00;;
6280;SDS011;3173;48.204;11.612;2022-09-01T14:55:13;1.70;;;1.00;;
6280;SDS011;3173;48.204;11.612;2022-09-01T14:57:39;2.67;;;1.50;;
6280;SDS011;3173;48.204;11.612;2022-09-01T15:00:06;1.97;;;1.07;;
6280;SDS011;3173;48.204;11.612;2022-09-01T15:02:36;2.57;;;1.83;;
6280;SDS011;3173;48.204;11.612;2022-09-01T15:05:03;3.63;;;1.10;;
6280;SDS011;3173;48.204;11.612;2022-09-01T15:07:29;1.30;;;1.00;;
6280;SDS011;3173;48.204;11.612;2022-09-01T15:09:55;4.37;;;1.20;;
6280;SDS011;3173;48.204;11.612;2022-09-01T15:12:22;4.43;;;1.10;;
6280;SDS011;3173;48.204;11.612;2022-09-01T15:14:49;2.87;;;1.13;;
6280;SDS011;3173;48.204;11.612;2022-09-01T15:17:15;2.90;;;1.00;;
6280;SDS011;3173;48.204;11.612;2022-09-01T15:19:41;2.07;;;1.13;;
6280;SDS011;3173;48.204;11.612;2022-09-01T15:22:07;2.10;;;1.07;;
6280;SDS011;3173;48.204;11.612;2022-09-01T15:24:34;2.03;;;1.17;;
6280;SDS011;3173;48.204;11.612;2022-09-01T15:27:01;2.40;;;1.20;;
6280;SDS011;3173;48.204;11.612;2022-09-01T15:29:26;1.37;;;0.83;;
6280;SDS011;3173;48.204;11.612;2022-09-01T15:31:58;1.83;;;1.03;;
6280;SDS011;3173;48.204;11.612;2022-09-01T15:34:25;2.50;;;1.00;;
6280;SDS011;3173;48.204;11.612;2022-09-01T15:36:51;3.10;;;1.20;;
6280;SDS011;3173;48.204;11.612;2022-09-01T15:39:17;2.77;;;0.97;;
6280;SDS011;3173;48.204;11.612;2022-09-01T15:41:43;2.53;;;1.03;;
6280;SDS011;3173;48.204;11.612;2022-09-01T15:44:09;3.57;;;1.50;;
6280;SDS011;3173;48.204;11.612;2022-09-01T15:46:36;2.53;;;1.13;;
6280;SDS011;3173;48.204;11.612;2022-09-01T15:49:04;2.13;;;1.63;;
6280;SDS011;3173;48.204;11.612;2022-09-01T15:51:32;3.30;;;1.10;;